Time;durP1;ratioP1;P1;durP2;ratioP2;P2;SDS_P1;SDS_P2;PMS_P1;PMS_P2;Temp;Humidity;BMP_temperature;BMP_pressure;BME280_temperature;BME280_humidity;BME280_pressure;Samples;Min_cycle;Max_cycle;Signal;HPM_P1;HPM_P2
2022/06/26 00:01:59;;;;;;;7.78;6.10;;;;;;;17.06;61.89;97029.33;1768032;80;25235;-76
2022/06/26 00:04:26;;;;;;;8.23;5.60;;;;;;;17.02;62.02;97036.41;1768098;80;25937;-76
2022/06/26 00:06:54;;;;;;;6.60;5.80;;;;;;;16.99;62.11;97036.92;1768155;80;25731;-76
2022/06/26 00:09:21;;;;;;;8.88;6.50;;;;;;;16.90;62.20;97038.75;1768218;80;25746;-76
2022/06/26 00:11:47;;;;;;;8.23;6.37;;;;;;;16.84;62.43;97053.44;1768166;80;28073;-77
2022/06/26 00:14:14;;;;;;;9.45;6.10;;;;;;;16.80;62.53;97048.21;1768149;80;25848;-77
2022/06/26 00:16:40;;;;;;;7.78;5.95;;;;;;;16.78;62.62;97053.13;1769600;80;25746;-78
2022/06/26 00:19:07;;;;;;;6.75;6.05;;;;;;;16.72;62.73;97055.51;1768277;80;25710;-76
2022/06/26 00:21:33;;;;;;;8.95;6.00;;;;;;;16.67;62.87;97060.08;1770907;80;25288;-76
2022/06/26 00:24:00;;;;;;;6.85;5.67;;;;;;;16.56;62.99;97059.13;1769630;80;28450;-76
2022/06/26 00:26:27;;;;;;;11.80;6.15;;;;;;;16.46;63.21;97055.77;1769874;80;25849;-76
2022/06/26 00:28:53;;;;;;;6.10;5.47;;;;;;;16.35;63.23;97063.55;1770568;80;26288;-78
2022/06/26 00:31:20;;;;;;;6.75;5.92;;;;;;;16.26;63.43;97064.27;1768149;80;26457;-76
2022/06/26 00:33:46;;;;;;;8.15;6.12;;;;;;;16.26;63.75;97064.27;1769585;80;25771;-78
2022/06/26 00:36:13;;;;;;;6.10;5.25;;;;;;;16.30;63.75;97063.48;1769473;80;28164;-78
2022/06/26 00:38:39;;;;;;;6.15;5.55;;;;;;;16.31;63.86;97067.86;1768048;80;25809;-76
2022/06/26 00:41:06;;;;;;;6.83;6.03;;;;;;;16.21;63.74;97061.77;1768201;80;25798;-77
2022/06/26 00:43:32;;;;;;;8.00;5.97;;;;;;;16.13;63.94;97058.68;1768253;80;25703;-77
2022/06/26 00:45:59;;;;;;;8.65;6.62;;;;;;;16.09;64.12;97058.36;1768110;80;25654;-76
2022/06/26 00:48:26;;;;;;;7.20;6.17;;;;;;;16.03;64.25;97066.20;1770498;80;27392;-76
2022/06/26 00:50:52;;;;;;;9.85;6.80;;;;;;;15.97;64.36;97067.20;1768108;80;25834;-76
2022/06/26 00:53:19;;;;;;;8.50;6.53;;;;;;;15.97;64.55;97071.28;1769496;80;25721;-78
2022/06/26 00:55:46;;;;;;;10.03;6.35;;;;;;;16.00;64.55;97071.32;1768001;80;26553;-77
2022/06/26 00:58:13;;;;;;;14.60;6.47;;;;;;;16.02;64.63;97068.64;1768154;80;25687;-76
2022/06/26 01:00:41;;;;;;;15.68;7.75;;;;;;;16.00;64.56;97075.41;1769252;80;27428;-77
2022/06/26 01:03:09;;;;;;;12.40;7.85;;;;;;;15.98;64.68;97082.45;1768200;80;25758;-76
2022/06/26 01:05:36;;;;;;;12.90;7.97;;;;;;;15.97;64.64;97082.17;1768821;80;25754;-77
2022/06/26 01:08:03;;;;;;;9.48;6.40;;;;;;;15.95;64.68;97078.88;1767982;80;25723;-76
2022/06/26 01:10:30;;;;;;;8.68;6.83;;;;;;;15.92;64.83;97076.68;1770760;80;25729;-76
2022/06/26 01:13:00;;;;;;;9.90;5.75;;;;;;;15.91;64.85;97071.48;1769415;80;28330;-76
2022/06/26 01:15:27;;;;;;;8.65;5.72;;;;;;;15.88;64.94;97078.25;1769039;80;26460;-77
2022/06/26 01:17:55;;;;;;;8.63;6.55;;;;;;;15.84;65.08;97075.20;1770727;80;25694;-77
2022/06/26 01:20:22;;;;;;;9.73;6.95;;;;;;;15.82;65.15;97075.98;1769345;80;25741;-76
2022/06/26 01:23:07;;;;;;;7.20;6.35;;;;;;;15.82;65.23;97077.34;1768213;80;25828;-77
2022/06/26 01:25:48;;;;;;;9.48;6.28;;;;;;;15.78;65.24;97075.41;1760484;80;27411;-76
2022/06/26 01:28:16;;;;;;;9.50;6.65;;;;;;;15.73;65.39;97078.87;1758078;80;25740;-76
2022/06/26 01:30:42;;;;;;;10.32;6.47;;;;;;;15.65;65.37;97077.95;1764281;80;25855;-77
2022/06/26 01:33:09;;;;;;;6.78;6.15;;;;;;;15.52;65.45;97081.53;1755521;80;26331;-76
2022/06/26 01:35:36;;;;;;;8.28;5.90;;;;;;;15.43;65.63;97078.43;1760703;80;25938;-76
2022/06/26 01:38:18;;;;;;;8.68;5.83;;;;;;;15.42;65.86;97078.14;1757553;80;28044;-76
2022/06/26 01:40:45;;;;;;;7.00;5.75;;;;;;;15.42;65.92;97077.61;1763404;80;25729;-76
2022/06/26 01:43:17;;;;;;;7.05;6.30;;;;;;;15.41;66.08;97075.95;1762444;80;25388;-76
2022/06/26 01:45:53;;;;;;;8.80;6.15;;;;;;;15.40;66.04;97077.02;1761737;80;26589;-77
2022/06/26 01:48:21;;;;;;;7.37;6.30;;;;;;;15.37;66.12;97075.33;1766827;80;25825;-75
2022/06/26 01:50:48;;;;;;;8.68;6.42;;;;;;;15.34;66.10;97078.01;1764326;80;27439;-76
2022/06/26 01:53:16;;;;;;;8.68;6.10;;;;;;;15.32;66.17;97077.46;1764801;80;25888;-76
2022/06/26 01:55:43;;;;;;;8.45;6.15;;;;;;;15.31;66.21;97082.61;1761348;80;25983;-77
2022/06/26 01:58:09;;;;;;;6.85;6.03;;;;;;;15.30;66.18;97082.86;1764875;80;25743;-77
2022/06/26 02:00:40;;;;;;;7.20;6.35;;;;;;;15.23;66.20;97078.93;1766626;80;26012;-76
2022/06/26 02:03:08;;;;;;;9.13;6.58;;;;;;;15.19;66.32;97079.70;1759421;80;28958;-76
2022/06/26 02:05:35;;;;;;;7.78;6.10;;;;;;;15.17;66.43;97079.94;1766953;80;25814;-76
2022/06/26 02:08:02;;;;;;;10.53;6.37;;;;;;;15.14;66.40;97080.42;1768267;81;25410;-76
2022/06/26 02:16:06;;;;;;;10.60;6.60;;;;;;;15.03;66.69;97086.24;1758100;80;27471;-76
2022/06/26 02:18:34;;;;;;;10.70;6.95;;;;;;;15.00;66.84;97073.67;1744287;81;35380;-76
2022/06/26 02:21:01;;;;;;;8.60;6.80;;;;;;;14.97;66.83;97087.78;1736816;81;25872;-76
2022/06/26 02:23:28;;;;;;;9.70;7.17;;;;;;;14.94;66.91;97088.27;1676631;83;25761;-76
2022/06/26 02:25:54;;;;;;;8.60;6.45;;;;;;;14.88;67.01;97089.23;1672771;84;25746;-76
2022/06/26 02:28:21;;;;;;;10.98;6.97;;;;;;;14.85;67.06;97090.58;1651165;85;28101;-75
2022/06/26 02:30:49;;;;;;;7.03;6.10;;;;;;;14.82;67.09;97095.67;1653186;85;25812;-75
2022/06/26 02:33:16;;;;;;;8.00;7.12;;;;;;;14.77;67.19;97093.14;1616662;88;26032;-76
2022/06/26 02:35:42;;;;;;;6.90;6.20;;;;;;;14.75;67.23;97097.98;1679584;84;26692;-75
2022/06/26 02:38:09;;;;;;;8.38;6.10;;;;;;;14.74;67.28;97099.59;1666472;84;25951;-75
2022/06/26 02:40:37;;;;;;;8.23;6.40;;;;;;;14.71;67.36;97106.89;1674252;84;27409;-75
2022/06/26 02:43:03;;;;;;;7.83;6.30;;;;;;;14.69;67.42;97111.21;1666400;83;25797;-76
2022/06/26 02:45:30;;;;;;;8.65;6.40;;;;;;;14.67;67.46;97107.91;1701221;83;25856;-76
2022/06/26 02:47:56;;;;;;;7.22;6.53;;;;;;;14.66;67.49;97105.44;1692989;83;26551;-76
2022/06/26 02:50:23;;;;;;;8.33;6.45;;;;;;;14.63;67.49;97106.73;1679898;83;25867;-76
2022/06/26 02:52:50;;;;;;;8.55;5.80;;;;;;;14.62;67.59;97110.52;1692105;83;27501;-77
2022/06/26 02:55:16;;;;;;;8.10;6.53;;;;;;;14.58;67.60;97115.34;1696971;83;26022;-77
2022/06/26 02:57:43;;;;;;;8.43;6.10;;;;;;;14.56;67.75;97116.94;1705361;83;25817;-76
2022/06/26 03:00:12;;;;;;;8.10;6.35;;;;;;;14.56;67.87;97123.73;1712645;83;26365;-76
2022/06/26 03:02:39;;;;;;;8.40;6.80;;;;;;;14.57;67.90;97118.59;1695995;83;25984;-75
2022/06/26 03:05:08;;;;;;;6.83;6.10;;;;;;;14.58;67.93;97124.32;1704050;83;27484;-75
2022/06/26 03:07:35;;;;;;;8.65;6.15;;;;;;;14.58;68.04;97128.92;1697142;83;25804;-76
2022/06/26 03:10:02;;;;;;;8.75;6.90;;;;;;;14.58;68.07;97119.42;1697092;83;25858;-76
2022/06/26 03:12:29;;;;;;;7.30;6.22;;;;;;;14.58;68.12;97122.96;1712664;83;25730;-77
2022/06/26 03:14:55;;;;;;;8.78;6.55;;;;;;;14.55;68.24;97122.08;1713368;80;25866;-77
2022/06/26 03:17:22;;;;;;;7.42;6.78;;;;;;;14.54;68.23;97129.11;1758021;80;27463;-76
2022/06/26 03:19:49;;;;;;;7.92;6.58;;;;;;;14.51;68.25;97122.80;1749350;80;25809;-76
2022/06/26 03:22:15;;;;;;;8.03;7.00;;;;;;;14.50;68.27;97131.48;1753057;80;25661;-77
2022/06/26 03:24:42;;;;;;;10.23;7.08;;;;;;;14.47;68.25;97130.63;1767037;80;26386;-76
2022/06/26 03:27:08;;;;;;;7.28;6.30;;;;;;;14.46;68.36;97137.66;1762711;80;25722;-79
2022/06/26 03:29:35;;;;;;;7.05;6.35;;;;;;;14.45;68.46;97143.63;1763650;80;27379;-79
2022/06/26 03:32:01;;;;;;;8.35;6.40;;;;;;;14.46;68.52;97149.34;1769532;80;25259;-77
2022/06/26 03:34:28;;;;;;;7.35;6.62;;;;;;;14.45;68.59;97151.77;1768302;81;25703;-79
2022/06/26 03:36:54;;;;;;;9.68;6.65;;;;;;;14.45;68.69;97152.30;1764770;80;25753;-77
2022/06/26 03:39:21;;;;;;;7.30;6.40;;;;;;;14.45;68.76;97155.02;1754487;80;25847;-77
2022/06/26 03:41:58;;;;;;;8.03;7.20;;;;;;;14.46;68.84;97152.06;1767377;80;27509;-77
2022/06/26 03:44:16;;;;;;;7.95;7.15;;;;;;;14.47;68.95;97151.00;1762531;80;25760;-77
2022/06/26 03:46:42;;;;;;;8.13;7.17;;;;;;;14.49;68.99;97154.84;1743130;80;25656;-76
2022/06/26 03:49:10;;;;;;;7.72;6.72;;;;;;;14.50;69.00;97153.20;1740522;80;25759;-77
2022/06/26 03:51:36;;;;;;;9.23;7.05;;;;;;;14.50;69.11;97157.28;1766950;80;25681;-78
2022/06/26 03:54:03;;;;;;;8.68;7.78;;;;;;;14.51;69.20;97161.65;1763873;80;27407;-77
2022/06/26 03:56:29;;;;;;;8.23;7.35;;;;;;;14.55;69.29;97157.92;1752709;80;25828;-77
2022/06/26 03:58:56;;;;;;;9.98;7.37;;;;;;;14.59;69.38;97155.85;1762340;80;25732;-79
2022/06/26 04:01:23;;;;;;;11.95;7.70;;;;;;;14.64;69.34;97157.82;1760724;80;25734;-77
2022/06/26 04:03:49;;;;;;;9.98;7.83;;;;;;;14.69;69.33;97155.21;1757356;80;26176;-77
2022/06/26 04:06:16;;;;;;;9.45;8.18;;;;;;;14.74;69.33;97161.55;1747795;80;27430;-81
2022/06/26 04:08:42;;;;;;;10.18;7.65;;;;;;;14.80;69.32;97161.12;1743486;80;25639;-78
2022/06/26 04:11:09;;;;;;;11.83;8.35;;;;;;;14.85;69.37;97157.69;1757194;80;25702;-77
2022/06/26 04:13:36;;;;;;;9.35;8.35;;;;;;;14.88;69.40;97150.37;1767738;80;25737;-77
2022/06/26 04:16:02;;;;;;;11.90;8.55;;;;;;;14.93;69.46;97153.20;1766743;81;25899;-77
2022/06/26 04:18:29;;;;;;;12.90;7.50;;;;;;;14.97;69.53;97143.50;1757730;80;27404;-76
2022/06/26 04:20:55;;;;;;;11.88;9.78;;;;;;;15.01;69.55;97141.38;1762531;80;25746;-77
2022/06/26 04:23:22;;;;;;;12.63;8.43;;;;;;;15.07;69.60;97147.73;1762200;80;25953;-78
2022/06/26 04:25:49;;;;;;;12.00;8.53;;;;;;;15.12;69.60;97150.53;1756741;80;25583;-77
2022/06/26 04:28:15;;;;;;;10.38;8.18;;;;;;;15.16;69.64;97147.61;1758719;80;25716;-79
2022/06/26 04:30:42;;;;;;;9.38;7.83;;;;;;;15.21;69.70;97143.64;1746025;80;27387;-77
2022/06/26 04:33:09;;;;;;;14.03;8.85;;;;;;;15.26;69.65;97145.06;1767141;80;25778;-77
2022/06/26 04:35:36;;;;;;;10.60;8.98;;;;;;;15.34;69.55;97143.81;1762112;80;26672;-76
2022/06/26 04:38:03;;;;;;;12.43;8.30;;;;;;;15.38;69.50;97147.16;1758201;80;25795;-76
2022/06/26 04:40:30;;;;;;;8.85;8.00;;;;;;;15.41;69.52;97144.48;1761862;80;25697;-77
2022/06/26 04:42:56;;;;;;;10.50;8.25;;;;;;;15.46;69.52;97141.29;1753696;80;27420;-77
2022/06/26 04:45:23;;;;;;;10.93;8.43;;;;;;;15.53;69.54;97141.67;1763225;80;25638;-77
2022/06/26 04:47:50;;;;;;;11.78;8.88;;;;;;;15.60;69.59;97143.70;1752701;80;25741;-79
2022/06/26 04:50:16;;;;;;;9.90;8.10;;;;;;;15.67;69.48;97144.37;1748561;80;25738;-79
2022/06/26 04:52:46;;;;;;;9.53;8.13;;;;;;;15.71;69.65;97142.77;1756651;80;25900;-77
2022/06/26 04:55:14;;;;;;;9.05;8.05;;;;;;;15.77;69.62;97145.33;1739174;81;27362;-77
2022/06/26 04:57:40;;;;;;;10.05;8.68;;;;;;;15.82;69.61;97145.92;1722755;81;25436;-78
2022/06/26 05:00:10;;;;;;;10.08;7.87;;;;;;;15.88;69.52;97146.30;1728912;81;25968;-77
2022/06/26 05:02:37;;;;;;;12.20;9.53;;;;;;;15.96;69.51;97144.49;1725229;81;25793;-77
2022/06/26 05:05:06;;;;;;;10.72;9.50;;;;;;;16.04;69.41;97139.99;1740406;81;25715;-77
2022/06/26 05:07:33;;;;;;;10.43;9.43;;;;;;;16.11;69.41;97141.16;1731135;81;28176;-77
2022/06/26 05:10:00;;;;;;;13.38;9.40;;;;;;;16.17;69.42;97140.98;1731860;81;25905;-77
2022/06/26 05:12:27;;;;;;;9.90;8.03;;;;;;;16.27;69.53;97143.54;1732782;81;25729;-78
2022/06/26 05:14:54;;;;;;;8.28;7.45;;;;;;;16.37;69.62;97140.93;1740832;81;25918;-80
2022/06/26 05:17:21;;;;;;;9.08;7.72;;;;;;;16.44;69.59;97141.55;1735584;81;25673;-77
2022/06/26 05:19:47;;;;;;;8.90;7.80;;;;;;;16.51;69.48;97139.47;1732068;81;27079;-78
2022/06/26 05:22:14;;;;;;;8.00;7.22;;;;;;;16.61;69.41;97145.56;1734193;81;26457;-79
2022/06/26 05:24:40;;;;;;;7.50;6.80;;;;;;;16.69;69.39;97148.67;1718086;82;25913;-78
2022/06/26 05:27:07;;;;;;;10.48;7.10;;;;;;;16.77;69.32;97144.15;1725272;81;26316;-79
2022/06/26 05:29:33;;;;;;;11.73;7.97;;;;;;;16.87;69.35;97143.42;1729808;81;25943;-77
2022/06/26 05:32:00;;;;;;;10.98;7.37;;;;;;;16.95;69.19;97139.39;1733984;81;28088;-78
2022/06/26 05:34:26;;;;;;;11.97;6.70;;;;;;;17.05;69.00;97143.03;1733567;81;25887;-80
2022/06/26 05:36:53;;;;;;;8.45;7.53;;;;;;;17.14;68.93;97142.87;1733179;81;25793;-78
2022/06/26 05:39:20;;;;;;;9.35;7.58;;;;;;;17.24;68.77;97148.95;1724474;81;25763;-78
2022/06/26 05:41:48;;;;;;;8.80;7.75;;;;;;;17.32;68.59;97145.73;1717334;82;25929;-78
2022/06/26 05:44:15;;;;;;;7.60;6.62;;;;;;;17.42;68.34;97144.98;1730939;81;27405;-81
2022/06/26 05:46:42;;;;;;;8.20;6.72;;;;;;;17.53;68.10;97153.52;1728222;81;25893;-80
2022/06/26 05:49:08;;;;;;;10.58;6.58;;;;;;;17.63;67.90;97146.80;1730059;81;26003;-80
2022/06/26 05:51:35;;;;;;;9.83;6.62;;;;;;;17.73;67.61;97146.90;1726823;80;25731;-78
2022/06/26 05:54:02;;;;;;;7.05;6.35;;;;;;;17.83;67.34;97147.50;1745430;80;25423;-79
2022/06/26 05:56:28;;;;;;;7.37;5.80;;;;;;;17.93;67.14;97154.38;1753589;80;27390;-80
2022/06/26 05:58:55;;;;;;;9.05;6.28;;;;;;;18.04;66.94;97154.72;1743395;80;26110;-79
2022/06/26 06:01:21;;;;;;;8.15;5.75;;;;;;;18.14;66.74;97157.49;1741777;80;25834;-78
2022/06/26 06:03:48;;;;;;;6.10;5.50;;;;;;;18.26;66.62;97153.18;1764019;80;25717;-77
2022/06/26 06:06:14;;;;;;;7.37;6.33;;;;;;;18.37;66.50;97161.70;1748558;80;25773;-77
2022/06/26 06:08:41;;;;;;;6.65;6.03;;;;;;;18.49;66.44;97160.92;1768076;80;27411;-78
2022/06/26 06:11:07;;;;;;;8.00;6.00;;;;;;;18.62;66.57;97161.00;1747945;80;25720;-79
2022/06/26 06:13:34;;;;;;;11.28;6.47;;;;;;;18.75;66.62;97156.39;1740559;80;25726;-77
2022/06/26 06:16:01;;;;;;;7.20;5.83;;;;;;;18.87;66.55;97162.44;1748145;80;25704;-78
2022/06/26 06:18:27;;;;;;;6.62;5.95;;;;;;;18.97;66.24;97156.98;1754459;80;25840;-78
2022/06/26 06:20:54;;;;;;;9.23;6.35;;;;;;;19.08;66.04;97164.12;1744174;80;27409;-80
2022/06/26 06:23:20;;;;;;;6.95;5.87;;;;;;;19.19;65.67;97161.42;1748039;80;25640;-78
2022/06/26 06:25:47;;;;;;;7.22;6.05;;;;;;;19.30;65.48;97158.42;1753671;80;25693;-78
2022/06/26 06:28:13;;;;;;;6.75;5.53;;;;;;;19.43;65.58;97158.42;1740651;80;25821;-78
2022/06/26 06:30:40;;;;;;;9.30;5.92;;;;;;;19.56;65.65;97160.61;1752743;80;25656;-78
2022/06/26 06:33:06;;;;;;;6.50;5.92;;;;;;;19.68;65.72;97162.52;1757217;80;27412;-78
2022/06/26 06:35:33;;;;;;;6.10;5.50;;;;;;;19.81;65.43;97157.58;1763058;80;26230;-80
2022/06/26 06:38:00;;;;;;;6.45;5.75;;;;;;;19.92;65.15;97157.86;1763750;80;25946;-79
2022/06/26 06:40:26;;;;;;;8.80;5.90;;;;;;;20.03;64.94;97156.73;1759582;80;25794;-78
2022/06/26 06:42:53;;;;;;;8.05;5.40;;;;;;;20.16;64.62;97166.30;1753856;80;25709;-77
2022/06/26 06:45:19;;;;;;;5.60;5.10;;;;;;;20.28;64.43;97159.41;1764615;81;27486;-77
2022/06/26 06:47:46;;;;;;;6.03;5.33;;;;;;;20.40;64.19;97161.31;1763770;80;25871;-77
2022/06/26 06:50:12;;;;;;;6.35;5.53;;;;;;;20.53;63.84;97161.81;1753669;80;25721;-77
2022/06/26 06:52:39;;;;;;;5.78;5.08;;;;;;;20.65;63.70;97158.20;1752174;80;26509;-77
2022/06/26 06:55:07;;;;;;;7.83;5.87;;;;;;;20.75;63.50;97158.14;1738138;80;25925;-77
2022/06/26 06:57:33;;;;;;;6.00;5.40;;;;;;;20.87;63.46;97158.63;1758212;80;27425;-77
2022/06/26 07:00:01;;;;;;;9.30;4.95;;;;;;;20.98;63.13;97150.59;1765033;80;25736;-77
2022/06/26 07:02:30;;;;;;;5.80;5.25;;;;;;;21.10;62.65;97153.81;1741207;80;25737;-77
2022/06/26 07:04:56;;;;;;;6.40;4.97;;;;;;;21.25;62.82;97157.04;1761110;80;25805;-77
2022/06/26 07:07:23;;;;;;;10.00;5.83;;;;;;;21.48;62.78;97159.61;1766655;80;25737;-78
2022/06/26 07:09:49;;;;;;;5.95;5.20;;;;;;;21.62;62.14;97157.81;1768788;80;27370;-77
2022/06/26 07:12:16;;;;;;;7.00;5.75;;;;;;;21.73;61.66;97155.27;1768363;81;25445;-77
2022/06/26 07:14:42;;;;;;;7.80;5.70;;;;;;;21.81;61.79;97138.70;1757325;80;25821;-77
2022/06/26 07:17:09;;;;;;;8.63;6.05;;;;;;;21.92;61.13;97125.95;1760367;80;26378;-77
2022/06/26 07:19:36;;;;;;;7.05;5.67;;;;;;;22.14;60.25;97152.13;1757271;80;25663;-79
2022/06/26 07:22:03;;;;;;;8.13;5.62;;;;;;;22.14;60.25;97152.13;1758308;80;27743;-77
2022/06/26 07:24:30;;;;;;;6.95;5.37;;;;;;;22.32;60.12;97154.14;1759368;80;25772;-78
2022/06/26 07:26:57;;;;;;;7.30;5.15;;;;;;;22.32;60.12;97154.14;1767286;81;25788;-77
2022/06/26 07:29:23;;;;;;;6.70;5.20;;;;;;;22.44;59.94;97151.80;1760367;80;25714;-77
2022/06/26 07:31:50;;;;;;;6.20;5.20;;;;;;;22.55;59.49;97153.30;1761817;80;25855;-77
2022/06/26 07:34:16;;;;;;;7.45;5.70;;;;;;;22.67;58.95;97147.94;1753022;80;27246;-78
2022/06/26 07:36:47;;;;;;;7.03;5.28;;;;;;;22.80;58.69;97149.44;1754387;80;25250;-77
2022/06/26 07:39:18;;;;;;;6.97;5.12;;;;;;;22.91;58.11;97151.48;1654678;85;26989;-78
2022/06/26 07:41:46;;;;;;;6.35;4.83;;;;;;;23.04;57.93;97149.38;1646735;85;26501;-77
2022/06/26 07:44:13;;;;;;;5.92;5.30;;;;;;;23.18;57.92;97147.52;1651804;85;25727;-78
2022/06/26 07:46:41;;;;;;;7.80;5.15;;;;;;;23.33;58.06;97147.27;1655346;85;27703;-80
2022/06/26 07:49:09;;;;;;;6.85;5.15;;;;;;;23.51;57.42;97148.95;1650669;85;25506;-80
2022/06/26 07:51:36;;;;;;;6.28;5.33;;;;;;;23.65;57.25;97142.94;1653506;85;25827;-80
2022/06/26 07:54:03;;;;;;;6.53;4.90;;;;;;;23.83;57.08;97140.67;1663466;85;26562;-80
2022/06/26 07:56:30;;;;;;;12.18;5.08;;;;;;;24.03;56.71;97140.86;1656020;85;25510;-80
2022/06/26 07:58:58;;;;;;;5.75;4.62;;;;;;;24.23;56.19;97141.08;1662965;85;28292;-80
2022/06/26 08:01:25;;;;;;;8.25;5.00;;;;;;;24.44;55.67;97144.25;1655611;85;25921;-80
2022/06/26 08:03:52;;;;;;;8.00;5.17;;;;;;;24.74;54.93;97133.97;1651303;85;25919;-80
2022/06/26 08:06:19;;;;;;;6.42;5.10;;;;;;;25.13;54.64;97137.52;1659155;85;26406;-79
2022/06/26 08:08:46;;;;;;;5.90;4.58;;;;;;;25.60;53.96;97131.17;1664519;85;25884;-82
2022/06/26 08:11:13;;;;;;;7.22;4.58;;;;;;;26.11;53.87;97135.63;1654773;85;28290;-83
2022/06/26 08:13:40;;;;;;;5.20;4.70;;;;;;;26.66;53.22;97132.47;1664139;85;25707;-80
2022/06/26 08:16:06;;;;;;;10.53;4.55;;;;;;;27.16;52.20;97133.48;1652557;85;25397;-80
2022/06/26 08:18:33;;;;;;;6.35;3.98;;;;;;;27.63;51.32;97133.09;1655715;85;25847;-81
2022/06/26 08:22:00;;;;;;;5.42;3.90;;;;;;;28.06;50.05;97128.83;1650141;85;26055;-82
2022/06/26 08:23:28;;;;;;;4.17;3.65;;;;;;;28.48;49.04;97132.64;1650363;85;28111;-81
2022/06/26 08:25:54;;;;;;;7.25;3.62;;;;;;;28.85;48.14;97132.97;1650206;85;25751;-82
2022/06/26 08:28:21;;;;;;;3.55;3.22;;;;;;;29.26;47.03;97132.17;1655832;85;26721;-82
2022/06/26 08:30:48;;;;;;;4.92;3.33;;;;;;;29.65;46.33;97139.23;1648911;85;25782;-81
2022/06/26 08:33:14;;;;;;;4.45;3.30;;;;;;;29.99;45.64;97136.14;1647037;85;26530;-83
2022/06/26 08:35:41;;;;;;;3.55;3.25;;;;;;;30.34;44.14;97134.35;1683843;80;27402;-82
2022/06/26 08:38:08;;;;;;;3.25;2.95;;;;;;;30.55;43.35;97135.70;1738596;80;25924;-83
2022/06/26 08:40:35;;;;;;;5.12;3.00;;;;;;;30.89;43.23;97136.62;1757220;80;25776;-82
2022/06/26 08:43:02;;;;;;;3.67;3.25;;;;;;;31.27;42.38;97132.64;1721959;80;25816;-82
2022/06/26 08:45:31;;;;;;;5.60;3.50;;;;;;;31.67;42.05;97143.80;1740390;80;25380;-81
2022/06/26 08:47:59;;;;;;;4.47;3.02;;;;;;;32.06;41.26;97143.51;1723933;80;27389;-83
2022/06/26 08:50:26;;;;;;;5.40;3.02;;;;;;;32.42;40.83;97139.70;1766063;80;25499;-81
2022/06/26 08:52:53;;;;;;;3.37;3.17;;;;;;;32.71;39.64;97129.52;1764561;80;25736;-81
2022/06/26 08:55:23;;;;;;;5.90;2.90;;;;;;;33.05;39.28;97127.92;1740196;80;25889;-83
2022/06/26 08:57:50;;;;;;;4.22;2.83;;;;;;;33.39;38.33;97132.49;1751365;80;25682;-84
2022/06/26 09:00:17;;;;;;;3.87;2.95;;;;;;;33.63;37.45;97132.21;1763518;80;27638;-84
2022/06/26 09:02:44;;;;;;;4.42;3.10;;;;;;;33.90;36.79;97131.20;1757831;80;25892;-82
2022/06/26 09:05:11;;;;;;;4.20;3.27;;;;;;;34.12;36.33;97133.02;1749085;79;25614;-81
2022/06/26 09:07:49;;;;;;;3.72;3.30;;;;;;;34.37;35.99;97128.70;1769397;80;26557;-80
2022/06/26 09:10:19;;;;;;;3.83;2.90;;;;;;;34.65;35.16;97132.01;1764092;79;25727;-81
2022/06/26 09:12:57;;;;;;;5.80;2.98;;;;;;;34.86;34.79;97132.16;1761186;80;27608;-82
2022/06/26 09:15:26;;;;;;;3.92;2.80;;;;;;;35.03;34.16;97133.83;1732252;80;25752;-82
2022/06/26 09:18:02;;;;;;;3.27;3.02;;;;;;;35.27;33.76;97128.39;1743459;79;25781;-81
2022/06/26 09:20:33;;;;;;;5.10;3.10;;;;;;;35.42;33.07;97130.00;1728809;79;25959;-82
2022/06/26 09:23:02;;;;;;;7.40;2.90;;;;;;;35.49;32.65;97127.30;1676443;83;25725;-83
2022/06/26 09:25:43;;;;;;;3.47;3.05;;;;;;;35.49;31.95;97127.30;1674196;84;27353;-81
2022/06/26 09:28:15;;;;;;;3.25;2.90;;;;;;;35.53;31.81;97127.55;1675677;84;25945;-84
2022/06/26 09:31:01;;;;;;;4.53;3.20;;;;;;;35.69;31.39;97121.73;1674970;84;25887;-82
2022/06/26 09:36:04;;;;;;;4.53;2.72;;;;;;;36.10;31.39;97131.09;1601775;88;25889;-82
2022/06/26 09:38:34;;;;;;;4.03;2.62;;;;;;;36.28;30.64;97135.50;1607463;88;27532;-83
2022/06/26 09:41:09;;;;;;;6.30;3.17;;;;;;;36.28;30.08;97136.31;1603434;88;26029;-81
2022/06/26 09:43:38;;;;;;;4.85;2.95;;;;;;;36.31;29.91;97134.73;1590080;88;25972;-79
2022/06/26 09:46:08;;;;;;;5.35;3.02;;;;;;;36.42;29.89;97130.83;1600335;88;27023;-82
2022/06/26 09:48:35;;;;;;;3.33;2.90;;;;;;;36.54;29.91;97136.77;1608829;88;25850;-80
2022/06/26 09:51:08;;;;;;;5.05;2.60;;;;;;;36.41;29.23;97131.22;1592930;88;28227;-82
2022/06/26 09:53:34;;;;;;;5.85;2.80;;;;;;;36.38;29.03;97133.39;1602318;88;25934;-80
2022/06/26 09:56:02;;;;;;;5.50;3.02;;;;;;;36.24;28.48;97134.64;1603096;88;25779;-80
2022/06/26 09:58:30;;;;;;;5.62;2.83;;;;;;;36.22;28.39;97134.25;1609220;88;25866;-83
2022/06/26 10:06:29;;;;;;;5.03;2.80;;;;;;;36.35;28.35;97134.19;1557722;91;26054;-80
2022/06/26 10:09:05;;;;;;;3.27;2.50;;;;;;;36.21;27.84;97133.41;1553144;91;26015;-81
2022/06/26 10:11:35;;;;;;;4.72;3.45;;;;;;;36.25;27.41;97133.45;1559344;91;26569;-81
2022/06/26 10:14:21;;;;;;;3.75;2.80;;;;;;;36.15;27.32;97131.31;1518773;92;25859;-84
2022/06/26 10:16:59;;;;;;;3.10;2.77;;;;;;;36.09;27.19;97130.27;1572546;90;27588;-80
2022/06/26 10:19:52;;;;;;;3.37;3.02;;;;;;;36.17;27.13;97131.14;1537687;91;25359;-80
2022/06/26 10:22:19;;;;;;;3.70;2.80;;;;;;;36.20;27.17;97136.00;1567313;91;25835;-81
2022/06/26 10:25:02;;;;;;;5.75;3.02;;;;;;;36.08;27.16;97135.68;1565047;91;25953;-81
2022/06/26 10:27:33;;;;;;;3.00;2.80;;;;;;;36.07;27.32;97127.63;1565069;91;25898;-80
2022/06/26 10:32:43;;;;;;;4.00;2.98;;;;;;;36.25;27.12;97127.84;1509422;90;25872;-80
2022/06/26 10:35:13;;;;;;;3.50;3.20;;;;;;;36.34;27.40;97124.95;1531097;92;25866;-81
2022/06/26 10:37:48;;;;;;;3.12;2.83;;;;;;;36.41;27.23;97127.81;1536789;91;25878;-80
2022/06/26 10:43:11;;;;;;;4.62;3.00;;;;;;;36.35;27.23;97118.73;1536081;92;27678;-81
2022/06/26 10:45:40;;;;;;;5.45;2.95;;;;;;;36.34;27.07;97122.73;1534613;92;25828;-80
2022/06/26 10:48:19;;;;;;;5.60;3.00;;;;;;;36.31;27.32;97120.69;1534559;92;25912;-81
2022/06/26 10:51:01;;;;;;;4.45;2.50;;;;;;;36.33;26.67;97115.49;1534236;92;25816;-82
2022/06/26 10:53:39;;;;;;;4.15;2.75;;;;;;;36.18;26.76;97115.10;1536634;92;25831;-81
2022/06/26 10:56:08;;;;;;;4.17;2.77;;;;;;;36.16;26.63;97123.09;1534287;92;28276;-80
2022/06/26 10:58:45;;;;;;;4.83;2.83;;;;;;;36.19;26.58;97119.53;1535482;92;25872;-83
2022/06/26 11:01:13;;;;;;;4.05;2.95;;;;;;;36.20;26.25;97123.36;1459704;97;25967;-81
2022/06/26 11:03:41;;;;;;;5.30;2.80;;;;;;;36.08;25.79;97118.83;1460218;97;25889;-81
2022/06/26 11:06:11;;;;;;;5.47;3.10;;;;;;;35.98;26.10;97118.71;1459030;97;25926;-80
2022/06/26 11:08:46;;;;;;;3.67;2.90;;;;;;;35.96;26.03;97119.69;1478498;96;28364;-82
2022/06/26 11:11:22;;;;;;;3.55;3.00;;;;;;;35.99;26.17;97116.09;1473903;96;27266;-79
2022/06/26 11:13:59;;;;;;;3.12;2.92;;;;;;;36.05;26.28;97120.18;1468125;96;25942;-80
2022/06/26 11:16:44;;;;;;;5.20;2.67;;;;;;;36.11;26.31;97119.25;1466095;96;26529;-80
2022/06/26 11:19:29;;;;;;;4.42;3.27;;;;;;;36.15;26.12;97114.45;1471590;96;26035;-81
2022/06/26 11:22:10;;;;;;;6.05;3.22;;;;;;;35.87;25.43;97110.14;1474604;96;27520;-81
2022/06/26 11:24:49;;;;;;;5.37;3.05;;;;;;;35.73;25.75;97110.78;1476301;96;26279;-80
2022/06/26 11:27:16;;;;;;;6.50;2.90;;;;;;;35.58;25.83;97106.17;1475278;96;25844;-78
2022/06/26 11:29:46;;;;;;;3.42;3.08;;;;;;;35.54;26.06;97107.30;1488006;94;26035;-80
2022/06/26 11:32:13;;;;;;;5.72;2.77;;;;;;;35.66;26.75;97102.25;1559519;90;25944;-79
2022/06/26 11:34:49;;;;;;;4.62;2.72;;;;;;;35.85;26.90;97108.93;1563404;91;26983;-80
2022/06/26 11:37:17;;;;;;;4.03;3.05;;;;;;;35.96;26.62;97107.86;1560693;91;25819;-80
2022/06/26 11:39:43;;;;;;;3.70;3.40;;;;;;;35.95;26.24;97116.06;1560427;91;25830;-80
2022/06/26 11:42:15;;;;;;;7.10;3.17;;;;;;;35.91;25.98;97122.23;1557175;91;25680;-78
2022/06/26 11:44:53;;;;;;;3.65;3.15;;;;;;;35.91;26.55;97116.62;1566367;91;25738;-80
2022/06/26 11:47:22;;;;;;;4.78;2.65;;;;;;;35.83;25.91;97117.73;1560648;91;27553;-81
2022/06/26 11:49:49;;;;;;;3.60;3.30;;;;;;;35.79;26.15;97111.26;1558936;91;25769;-82
2022/06/26 11:52:17;;;;;;;4.20;3.30;;;;;;;35.61;25.89;97113.03;1563365;91;25822;-80
2022/06/26 11:54:44;;;;;;;5.62;3.00;;;;;;;35.55;25.96;97111.14;1556547;91;26001;-80
2022/06/26 11:57:12;;;;;;;5.15;3.47;;;;;;;35.56;25.91;97116.16;1579980;83;25853;-80